Latest Weather Observations for Coolangatta

IDN60801

Issued at 11:35 am EST Saturday 30 August 2014 (issued every 30 minutes, with the page automatically refreshed every 10 minutes)

About weather observations | Map of weather stations | Latest weather observations for NSW | Other Formats
Station Details ID: 040717 Name: COOLANGATTA Lat: -28.17 Lon: 153.51 Height: 4.0 m
Data from the previous 72 hours. | See also: Recent months at Coolangatta
Date/Time
EST
Temp
°C
App
Temp
°C
Dew
Point
Rel
Hum
%
Delta-T
°C
Wind Press
QNH
hPa
Press
MSL
hPa
Rain
since 9 am
mm
Dir
 
Spd
km/h
Gust
km/h
Spd
kts
Gust
kts
30/11:30am 21.5 18.6 9.7 47 6.3 SSW 15 24 8 13 1018.5 - 0.0
30/11:00am 21.8 18.2 9.7 46 6.5 SSW 19 30 10 16 1019.0 1019.0 0.0
30/10:30am 20.9 17.4 8.9 46 6.3 S 17 24 9 13 1019.4 - 0.0
30/10:00am 20.5 16.9 8.5 46 6.3 SSW 17 26 9 14 1019.6 1019.6 0.0
30/09:30am 20.8 17.3 8.8 46 6.3 SSW 17 26 9 14 1019.8 - 0.0
30/09:00am 19.0 16.8 7.8 48 5.7 W 9 13 5 7 1019.8 1019.8 0.0
30/08:30am 17.2 15.3 8.9 58 4.3 N 9 9 5 5 1020.0 - 0.0
30/08:00am 14.3 13.8 9.3 72 2.5 SE 2 6 1 3 1020.1 1020.1 0.0
30/07:30am 13.1 11.7 8.8 75 2.2 WNW 6 7 3 4 1019.9 - 0.0
30/07:00am 10.7 9.5 8.1 84 1.3 W 4 9 2 5 1019.8 1019.8 0.0
30/06:30am 9.2 7.5 7.5 89 0.8 SW 6 9 3 5 1019.4 - 0.0
30/06:00am 8.7 6.8 6.8 88 0.9 WSW 6 11 3 6 1019.1 1019.1 0.0
30/05:30am 9.3 6.7 7.6 89 0.8 WSW 11 13 6 7 1018.9 - 0.0
30/05:00am 8.0 5.1 6.5 90 0.7 WSW 11 15 6 8 1018.6 1018.6 0.0
30/04:30am 8.6 5.5 7.2 91 0.7 WSW 13 15 7 8 1018.8 - 0.0
30/04:00am 8.3 5.2 7.4 94 0.4 WSW 13 13 7 7 1018.9 1018.9 0.0
30/03:30am 7.5 6.7 6.6 94 0.4 CALM 0 0 0 0 1019.0 - 0.0
30/03:00am 7.7 6.9 6.6 93 0.5 CALM 0 0 0 0 1019.1 1019.1 0.0
30/02:30am 8.0 7.3 6.8 92 0.6 CALM 0 0 0 0 1019.1 - 0.0
30/02:00am 8.6 6.9 7.5 93 0.5 SW 6 7 3 4 1019.1 1019.1 0.0
30/01:30am 8.7 6.9 7.3 91 0.7 WSW 6 7 3 4 1019.3 - 0.0
30/01:00am 9.1 8.5 7.5 90 0.8 CALM 0 0 0 0 1019.6 1019.6 0.0
30/12:30am 9.3 8.7 7.3 87 0.9 CALM 0 0 0 0 1019.7 - 0.0
30/12:00am 10.0 9.1 7.6 85 1.1 SW 2 6 1 3 1019.8 1019.8 0.0
 
Date/Time
EST
Temp
°C
App
Temp
°C
Dew
Point
Rel
Hum
%
Delta-T
°C
Wind Press
QNH
hPa
Press
MSL
hPa
Rain
since 9 am
mm
Dir
 
Spd
km/h
Gust
km/h
Spd
kts
Gust
kts
29/11:30pm 10.3 8.9 7.2 81 1.5 WSW 4 6 2 3 1019.9 - 0.0
29/11:00pm 12.0 10.3 8.5 79 1.7 WSW 7 9 4 5 1020.1 1020.1 0.0
29/10:30pm 12.2 9.9 9.0 81 1.6 SW 11 11 6 6 1020.2 - 0.0
29/10:00pm 13.1 11.2 9.0 76 2.1 SW 9 11 5 6 1020.5 1020.5 0.0
29/09:30pm 14.1 11.5 7.9 66 3.1 SSW 11 13 6 7 1020.7 - 0.0
29/09:00pm 14.7 11.8 8.2 65 3.2 SW 13 17 7 9 1020.8 1020.8 0.0
29/08:30pm 13.7 11.5 9.2 74 2.3 SW 11 13 6 7 1020.9 - 0.0
29/08:00pm 14.5 11.9 7.8 64 3.3 SSW 11 13 6 7 1020.9 1020.9 0.0
29/07:30pm 14.8 12.2 7.6 62 3.6 S 11 15 6 8 1020.8 - 0.0
29/07:00pm 15.2 12.2 7.7 61 3.7 S 13 17 7 9 1020.6 1020.6 0.0
29/06:30pm 15.0 11.9 7.3 60 3.8 S 13 17 7 9 1020.5 - 0.0
29/06:00pm 15.9 12.9 7.9 59 4.0 SSE 13 19 7 10 1020.2 1020.2 0.0
29/05:30pm 17.0 13.7 7.9 55 4.6 SSE 15 22 8 12 1020.0 - 0.0
29/05:00pm 18.0 13.3 7.7 51 5.2 SSE 22 30 12 16 1019.6 1019.6 0.0
29/04:30pm 18.4 12.3 8.1 51 5.3 SSE 30 39 16 21 1019.5 - 0.0
29/04:00pm 19.2 14.3 8.5 50 5.5 SSE 24 35 13 19 1019.2 1019.2 0.0
29/03:30pm 18.7 12.9 8.1 50 5.4 SSE 28 39 15 21 1019.1 - 0.0
29/03:00pm 19.7 13.9 8.1 47 6.0 SSE 28 39 15 21 1019.2 1019.2 0.0
29/02:30pm 20.1 13.9 7.8 45 6.3 SE 30 43 16 23 1019.4 - 0.0
29/02:00pm 21.3 16.9 7.2 40 7.2 SSE 20 28 11 15 1019.6 1019.6 0.0
29/01:30pm 21.2 17.0 5.5 36 7.8 SSW 17 26 9 14 1020.1 - 0.0
29/01:00pm 21.2 16.6 6.3 38 7.5 S 20 30 11 16 1020.3 1020.3 0.0
29/12:30pm 20.6 16.2 6.5 40 7.1 SSW 19 24 10 13 1020.8 - 0.0
29/12:00pm 20.3 15.8 7.0 42 6.7 S 20 26 11 14 1021.3 1021.3 0.0
29/11:30am 20.6 16.5 7.9 44 6.6 SSW 19 30 10 16 1021.6 - 0.0
29/11:00am 19.8 15.5 7.2 44 6.4 S 19 30 10 16 1022.1 1022.1 0.0
29/10:30am 19.7 14.8 7.1 44 6.4 S 22 32 12 17 1022.6 - 0.0
29/10:00am 18.8 12.7 6.6 45 6.1 SSW 28 41 15 22 1022.8 1022.8 0.0
29/09:30am 18.6 13.4 7.4 48 5.7 SSW 24 39 13 21 1022.8 - 0.0
29/09:00am 18.4 13.7 7.8 50 5.4 S 22 33 12 18 1022.8 1022.8 0.0
29/08:30am 17.4 12.5 6.9 50 5.2 SSW 22 41 12 22 1022.7 - 0.0
29/08:00am 16.9 12.5 7.3 53 4.8 SSW 20 32 11 17 1022.5 1022.5 0.0
29/07:30am 16.1 10.9 7.1 55 4.5 S 24 33 13 18 1022.4 - 0.0
29/07:00am 14.8 11.4 7.6 62 3.6 S 15 26 8 14 1022.2 1022.2 0.0
29/06:30am 14.1 10.6 7.4 64 3.3 SW 15 20 8 11 1021.9 - 0.0
29/06:00am 14.2 10.4 7.5 64 3.3 SW 17 28 9 15 1021.8 1021.8 0.0
29/05:30am 14.1 10.7 7.6 65 3.2 SSW 15 20 8 11 1021.5 - 0.0
29/05:00am 14.0 10.2 7.5 65 3.2 SSW 17 22 9 12 1021.3 1021.3 0.0
29/04:30am 14.4 10.6 7.5 63 3.4 SSW 17 24 9 13 1021.2 - 0.0
29/04:00am 14.6 11.3 7.9 64 3.3 SSW 15 26 8 14 1021.1 1021.1 0.0
29/03:30am 14.4 10.7 7.9 65 3.2 SSW 17 26 9 14 1021.1 - 0.0
29/03:00am 14.3 10.9 7.8 65 3.2 SSW 15 20 8 11 1021.2 1021.2 0.0
29/02:30am 14.6 10.9 7.9 64 3.3 SSW 17 22 9 12 1021.3 - 0.0
29/02:00am 14.6 10.9 8.1 65 3.2 SSW 17 24 9 13 1021.2 1021.2 0.0
29/01:30am 15.0 11.4 8.3 64 3.4 SSW 17 20 9 11 1021.2 - 0.0
29/01:00am 15.1 11.1 8.3 64 3.4 SSW 19 28 10 15 1021.4 1021.4 0.0
29/12:30am 15.0 11.1 8.5 65 3.3 SSW 19 30 10 16 1021.6 - 0.0
29/12:00am 15.4 11.3 8.6 64 3.4 S 20 30 11 16 1021.6 1021.6 0.0
 
Date/Time
EST
Temp
°C
App
Temp
°C
Dew
Point
Rel
Hum
%
Delta-T
°C
Wind Press
QNH
hPa
Press
MSL
hPa
Rain
since 9 am
mm
Dir
 
Spd
km/h
Gust
km/h
Spd
kts
Gust
kts
28/11:30pm 15.3 11.2 8.8 65 3.3 SSW 20 28 11 15 1021.5 - 0.0
28/11:00pm 15.5 11.5 9.2 66 3.2 SSW 20 32 11 17 1021.7 1021.7 0.0
28/10:30pm 15.7 11.8 9.4 66 3.3 SSW 20 30 11 16 1021.9 - 0.0
28/10:00pm 15.5 11.8 9.6 68 3.0 SSW 19 26 10 14 1021.9 1021.9 0.0
28/09:30pm 15.6 12.0 9.7 68 3.1 S 19 28 10 15 1021.8 - 0.0
28/09:00pm 15.7 11.8 9.6 67 3.2 SSW 20 32 11 17 1021.9 1021.9 0.0
28/08:30pm 15.7 11.5 9.8 68 3.1 SSW 22 33 12 18 1021.8 - 0.0
28/08:00pm 16.1 11.0 10.6 70 2.9 S 28 48 15 26 1022.1 1022.1 0.0
28/07:51pm 16.1 10.9 10.4 69 3.0 SSW 28 48 15 26 1022.0 - 0.0
28/07:30pm 16.3 12.6 9.5 64 3.5 SSW 19 26 10 14 1021.7 - 0.0
28/07:00pm 16.4 12.7 9.6 64 3.5 S 19 28 10 15 1021.3 1021.3 0.0
28/06:30pm 17.2 11.9 9.9 62 3.8 SSW 28 41 15 22 1021.0 - 0.0
28/06:00pm 17.3 12.7 9.5 60 4.1 S 24 37 13 20 1020.5 1020.5 0.0
28/05:30pm 17.8 12.7 9.2 57 4.5 S 26 35 14 19 1020.0 - 0.0
28/05:17pm 17.8 12.3 9.2 57 4.5 S 28 46 15 25 1019.8 - 0.0
28/05:00pm 18.4 12.4 8.7 53 5.0 S 30 43 16 23 1019.4 1019.4 0.0
28/04:30pm 19.4 14.4 8.1 48 5.8 S 24 37 13 20 1018.9 - 0.0
28/04:06pm 19.8 14.1 8.2 47 6.0 S 28 50 15 27 1018.6 - 0.0
28/04:00pm 19.8 14.5 9.7 52 5.4 S 28 39 15 21 1018.5 1018.5 0.0
28/03:30pm 19.2 12.7 10.5 57 4.7 S 35 54 19 29 1018.0 - 0.0
28/03:00pm 19.9 14.0 10.3 54 5.2 S 32 50 17 27 1017.6 1017.6 0.0
28/02:41pm 20.3 14.1 10.1 52 5.5 S 33 52 18 28 1017.4 - 0.0
28/02:30pm 20.5 13.6 10.3 52 5.5 S 37 52 20 28 1017.4 - 0.0
28/02:00pm 20.3 13.3 9.8 51 5.6 S 37 57 20 31 1017.2 1017.2 0.0
28/01:37pm 20.8 13.1 10.0 50 5.8 S 41 59 22 32 1017.0 - 0.0
28/01:30pm 21.1 13.7 9.7 48 6.1 S 39 56 21 30 1017.0 - 0.0
28/01:00pm 21.5 14.1 10.0 48 6.2 S 39 61 21 33 1017.1 1017.1 0.0
28/12:30pm 21.3 15.1 10.2 49 6.0 S 33 56 18 30 1017.1 - 0.0
28/12:00pm 20.9 12.9 10.4 51 5.7 S 43 61 23 33 1016.9 1016.9 0.0
28/11:33am 20.2 12.5 10.3 53 5.3 S 41 59 22 32 1016.8 - 0.0
28/11:30am 20.1 12.1 11.1 56 4.9 S 44 59 24 32 1016.8 - 0.0
28/11:00am 20.1 12.6 12.1 60 4.5 S 43 65 23 35 1017.0 1017.0 0.0
28/10:30am 19.9 13.6 12.4 62 4.2 S 37 57 20 31 1016.7 - 0.0
28/10:00am 17.8 12.2 12.0 69 3.2 S 33 54 18 29 1017.0 1017.0 0.0
28/09:31am 17.1 11.6 12.6 75 2.5 S 33 59 18 32 1016.9 - 0.0
28/09:30am 17.0 11.8 12.7 76 2.4 S 32 46 17 25 1016.9 - 0.0
28/09:02am 16.6 12.5 13.7 83 1.6 S 28 48 15 26 1016.6 - 0.0
28/09:00am 16.4 12.6 13.5 83 1.6 S 26 48 14 26 1016.5 1016.5 27.6
28/08:54am 16.2 12.1 13.7 85 1.4 S 28 48 15 26 1016.5 - 27.6
28/08:48am 16.0 12.3 13.8 87 1.2 S 26 39 14 21 1016.6 - 27.4
28/08:30am 15.6 11.5 13.8 89 1.0 S 28 41 15 22 1016.2 - 27.4
28/08:20am 15.9 10.7 13.4 85 1.4 S 33 52 18 28 1016.0 - 26.0
28/08:02am 16.1 11.1 13.4 84 1.5 S 32 50 17 27 1015.5 - 25.4
28/08:00am 16.0 11.0 13.5 85 1.4 S 32 46 17 25 1015.6 1015.6 25.4
28/07:30am 16.0 11.3 13.3 84 1.5 S 30 52 16 28 1015.1 - 25.2
28/07:04am 15.7 11.5 13.5 87 1.2 SSW 28 48 15 26 1014.7 - 25.2
28/07:00am 15.5 12.1 13.7 89 1.0 SSW 24 35 13 19 1014.6 1014.6 25.2
28/06:51am 15.3 11.5 13.7 90 0.9 SSW 26 32 14 17 1014.5 - 25.0
28/06:30am 14.9 11.6 13.9 94 0.6 SSE 24 35 13 19 1014.8 - 24.8
28/06:12am 14.9 11.5 13.8 93 0.6 S 24 32 13 17 1014.3 - 22.4
28/06:05am 14.8 11.8 13.7 93 0.6 S 22 32 12 17 1014.2 - 22.0
28/06:00am 14.6 11.9 13.6 94 0.6 S 20 30 11 16 1014.3 1014.3 21.8
28/05:45am 14.5 10.3 13.4 93 0.6 S 28 46 15 25 1014.5 - 21.2
28/05:32am 14.7 11.2 13.4 92 0.7 S 24 30 13 16 1014.4 - 18.4
28/05:30am 14.8 11.3 13.5 92 0.7 S 24 32 13 17 1014.3 - 18.0
28/05:29am 14.7 11.2 13.4 92 0.7 SSW 24 32 13 17 1014.2 - 17.8
28/05:00am 14.6 12.5 13.6 94 0.6 SSE 17 22 9 12 1014.1 1014.1 15.8
28/04:30am 14.4 10.4 13.1 92 0.7 S 26 37 14 20 1013.7 - 10.8
28/04:15am 14.6 11.0 13.1 91 0.8 SSW 24 39 13 21 1013.4 - 8.6
28/04:00am 14.9 11.4 13.3 90 0.9 S 24 39 13 21 1013.2 1013.2 7.6
28/03:30am 14.6 11.0 13.1 91 0.8 SSW 24 35 13 19 1013.2 - 7.4
28/03:14am 14.6 10.7 13.3 92 0.7 SSW 26 41 14 22 1013.4 - 7.4
28/03:00am 14.4 10.4 13.1 92 0.7 SSW 26 39 14 21 1013.3 1013.3 7.0
28/02:41am 14.3 9.9 12.9 91 0.8 SSW 28 48 15 26 1013.3 - 6.4
28/02:30am 14.2 10.5 12.8 91 0.8 SSW 24 39 13 21 1013.6 - 6.0
28/02:21am 14.1 10.4 12.8 92 0.7 S 24 39 13 21 1013.8 - 5.6
28/02:00am 13.8 10.9 12.4 91 0.8 SW 19 32 10 17 1013.8 1013.8 4.4
28/01:45am 14.1 11.3 12.5 90 0.9 SW 19 32 10 17 1013.9 - 1.8
28/01:30am 14.2 10.3 12.2 88 1.1 SW 24 26 13 14 1014.1 - 1.0
28/01:00am 14.0 9.7 12.2 89 1.0 S 26 39 14 21 1014.3 1014.3 0.6
28/12:30am 13.6 8.5 11.8 89 1.0 SSW 30 48 16 26 1013.8 - 0.4
28/12:28am 13.6 8.8 11.7 88 1.0 SSW 28 48 15 26 1013.7 - 0.4
28/12:00am 14.3 9.3 10.9 80 1.8 S 28 41 15 22 1014.2 1014.2 0.0
 
Date/Time
EST
Temp
°C
App
Temp
°C
Dew
Point
Rel
Hum
%
Delta-T
°C
Wind Press
QNH
hPa
Press
MSL
hPa
Rain
since 9 am
mm
Dir
 
Spd
km/h
Gust
km/h
Spd
kts
Gust
kts
27/11:30pm 14.8 11.2 10.6 76 2.2 S 20 32 11 17 1014.3 - 0.0
27/11:00pm 15.0 11.6 10.6 75 2.3 S 19 28 10 15 1014.5 1014.5 0.0
27/10:30pm 14.8 12.4 10.0 73 2.5 SSW 13 20 7 11 1014.7 - 0.0
27/10:00pm 14.7 12.0 9.1 69 2.9 SW 13 20 7 11 1014.6 1014.6 0.0
27/09:30pm 14.0 11.3 8.8 71 2.6 S 13 15 7 8 1014.2 - 0.0
27/09:00pm 14.4 12.0 8.8 69 2.8 SSW 11 17 6 9 1013.7 1013.7 0.0
27/08:30pm 14.8 11.8 9.2 69 2.9 SW 15 20 8 11 1013.6 - 0.0
27/08:00pm 14.6 12.0 9.4 71 2.7 WSW 13 20 7 11 1013.7 1013.7 0.0
27/07:30pm 14.1 13.9 8.9 71 2.6 CALM 0 2 0 1 1013.6 - 0.0
27/07:00pm 15.0 13.1 8.9 67 3.1 WSW 9 17 5 9 1013.7 1013.7 0.0
27/06:30pm 15.3 11.9 9.0 66 3.2 W 17 26 9 14 1013.3 - 0.0
27/06:00pm 15.6 12.7 9.5 67 3.2 WSW 15 26 8 14 1013.1 1013.1 0.0
27/05:30pm 16.0 12.4 9.7 66 3.3 WSW 19 28 10 15 1013.2 - 0.0
27/05:00pm 16.6 12.7 9.3 62 3.8 WSW 20 37 11 20 1012.8 1012.8 0.0
27/04:30pm 17.6 13.0 9.5 59 4.2 WSW 24 32 13 17 1012.4 - 0.0
27/04:00pm 18.5 13.9 9.8 57 4.6 SW 24 35 13 19 1012.0 1012.0 0.0
27/03:30pm 19.2 14.9 10.7 58 4.6 SW 24 37 13 20 1012.2 - 0.0
27/03:00pm 19.6 14.6 10.9 57 4.7 SW 28 41 15 22 1012.5 1012.5 0.0
27/02:30pm 19.4 15.3 11.4 60 4.4 SSW 24 41 13 22 1013.0 - 0.0
27/02:00pm 20.0 16.4 11.7 59 4.6 SSW 22 37 12 20 1013.2 1013.2 0.0
27/01:30pm 19.7 14.7 10.9 57 4.8 SW 28 39 15 21 1013.4 - 0.0
27/01:00pm 20.3 16.1 11.2 56 5.0 SW 24 35 13 19 1013.6 1013.6 0.0
27/12:30pm 19.8 15.0 11.8 60 4.4 SSW 28 41 15 22 1014.2 - 0.0
27/12:00pm 20.3 16.2 11.5 57 4.9 SW 24 37 13 20 1014.6 1014.6 0.0

Other Formats:

Comma delimited format used in spreadsheet applications
http://www.bom.gov.au/fwo/IDN60801/IDN60801.94592.axf

JavaScript Object Notation format (JSON) in row-major order
http://www.bom.gov.au/fwo/IDN60801/IDN60801.94592.json